createdAt,value
2023-01-06T00:01:34.208Z,11.60
2023-01-06T00:04:03.324Z,11.68
2023-01-06T00:06:31.427Z,11.65
2023-01-06T00:09:01.048Z,11.62
2023-01-06T00:11:28.719Z,11.40
2023-01-06T00:13:56.449Z,11.42
2023-01-06T00:16:24.437Z,11.77
2023-01-06T00:18:55.838Z,11.75
2023-01-06T00:21:23.538Z,11.92
2023-01-06T00:23:50.978Z,11.94
2023-01-06T00:26:18.174Z,12.01
2023-01-06T00:28:47.093Z,11.90
2023-01-06T00:31:16.946Z,11.93
2023-01-06T00:33:44.918Z,11.93
2023-01-06T00:36:14.055Z,12.01
2023-01-06T00:38:42.645Z,11.98
2023-01-06T00:41:33.045Z,11.98
2023-01-06T00:44:02.144Z,12.07
2023-01-06T00:46:32.180Z,12.00
2023-01-06T00:49:05.339Z,12.10
2023-01-06T00:51:38.768Z,11.95
2023-01-06T00:54:07.886Z,12.08
2023-01-06T00:56:49.918Z,12.06
2023-01-06T00:59:20.900Z,12.07
2023-01-06T01:01:50.057Z,12.01
2023-01-06T01:04:19.057Z,12.07
2023-01-06T01:06:47.734Z,12.09
2023-01-06T01:09:24.447Z,12.00
2023-01-06T01:12:10.301Z,11.96
2023-01-06T01:14:50.021Z,11.84
2023-01-06T01:17:20.205Z,11.78
2023-01-06T01:19:49.553Z,11.77
2023-01-06T01:22:17.110Z,11.67
2023-01-06T01:24:44.572Z,11.66
2023-01-06T01:27:12.360Z,11.51
2023-01-06T01:29:39.586Z,11.66
2023-01-06T01:32:06.888Z,11.58
2023-01-06T01:34:34.564Z,11.65
2023-01-06T01:37:02.624Z,11.75
2023-01-06T01:39:30.894Z,11.73
2023-01-06T01:41:59.199Z,11.64
2023-01-06T01:45:06.808Z,11.70
2023-01-06T01:47:52.369Z,11.66
2023-01-06T01:50:28.956Z,11.57
2023-01-06T01:53:06.187Z,11.66
2023-01-06T01:55:54.906Z,11.54
2023-01-06T01:58:38.003Z,11.47
2023-01-06T02:01:09.219Z,11.67
2023-01-06T02:03:38.698Z,11.59
2023-01-06T02:06:12.655Z,11.60
2023-01-06T02:08:54.506Z,11.64
2023-01-06T02:11:23.497Z,11.63
2023-01-06T02:13:58.815Z,11.66
2023-01-06T02:16:50.995Z,11.44
2023-01-06T02:19:41.452Z,11.45
2023-01-06T02:22:51.181Z,11.47
2023-01-06T02:25:45.648Z,11.38
2023-01-06T02:28:53.402Z,11.51
2023-01-06T02:32:00.214Z,11.59
2023-01-06T02:34:33.747Z,11.57
2023-01-06T02:37:22.049Z,11.54
2023-01-06T02:40:04.736Z,11.52
2023-01-06T02:42:54.992Z,11.43
2023-01-06T02:45:31.212Z,11.48
2023-01-06T02:48:20.755Z,11.50
2023-01-06T02:51:23.328Z,11.43
2023-01-06T02:54:11.775Z,11.39
2023-01-06T02:56:45.635Z,11.41
2023-01-06T02:59:28.346Z,11.19
2023-01-06T03:01:59.588Z,11.34
2023-01-06T03:04:33.442Z,11.30
2023-01-06T03:07:03.613Z,11.34
2023-01-06T03:09:36.518Z,11.34
2023-01-06T03:12:22.461Z,11.16
2023-01-06T03:14:54.497Z,11.07
2023-01-06T03:17:23.669Z,11.19
2023-01-06T03:19:51.667Z,11.15
2023-01-06T03:22:21.143Z,11.10
2023-01-06T03:24:49.213Z,11.07
2023-01-06T03:27:23.194Z,10.94
2023-01-06T03:29:50.559Z,10.83
2023-01-06T03:33:02.951Z,10.90
2023-01-06T03:35:52.813Z,10.81
2023-01-06T03:38:50.028Z,10.73
2023-01-06T03:41:57.460Z,10.71
2023-01-06T03:44:43.709Z,10.72
2023-01-06T03:47:25.715Z,10.76
2023-01-06T03:50:03.492Z,10.68
2023-01-06T03:52:37.421Z,10.71
2023-01-06T03:55:18.196Z,10.62
2023-01-06T03:57:50.027Z,10.77
2023-01-06T04:00:20.179Z,10.79
2023-01-06T04:02:56.117Z,10.77
2023-01-06T04:05:28.008Z,10.78
2023-01-06T04:07:57.392Z,10.73
2023-01-06T04:10:24.809Z,10.68
2023-01-06T04:12:57.800Z,10.64
2023-01-06T04:15:29.831Z,10.56
2023-01-06T04:17:59.099Z,10.53
2023-01-06T04:20:30.563Z,10.60
2023-01-06T04:23:07.856Z,10.63
2023-01-06T04:25:38.586Z,10.42
2023-01-06T04:28:18.320Z,10.51
2023-01-06T04:30:45.814Z,10.48
2023-01-06T04:33:13.088Z,10.61
2023-01-06T04:35:43.918Z,10.60
2023-01-06T04:38:11.545Z,10.57
2023-01-06T04:40:38.755Z,10.65
2023-01-06T04:43:06.038Z,10.70
2023-01-06T04:45:35.248Z,10.67
2023-01-06T04:48:02.829Z,10.74
2023-01-06T04:50:30.080Z,10.66
2023-01-06T04:52:57.297Z,10.71
2023-01-06T04:55:25.053Z,10.56
2023-01-06T04:57:52.419Z,10.52
2023-01-06T05:00:20.485Z,10.71
2023-01-06T05:02:48.439Z,10.75
2023-01-06T05:05:16.677Z,10.70
2023-01-06T05:07:43.876Z,10.60
2023-01-06T05:10:11.206Z,10.74
2023-01-06T05:12:38.312Z,10.67
2023-01-06T05:15:06.408Z,10.76
2023-01-06T05:17:33.594Z,10.73
2023-01-06T05:20:00.947Z,10.66
2023-01-06T05:22:28.195Z,10.63
2023-01-06T05:24:55.443Z,10.61
2023-01-06T05:27:22.639Z,10.45
2023-01-06T05:29:50.004Z,10.41
2023-01-06T05:32:17.333Z,10.49
2023-01-06T05:34:44.629Z,10.48
2023-01-06T05:37:11.782Z,10.26
2023-01-06T05:39:39.013Z,10.50
2023-01-06T05:42:06.538Z,10.36
2023-01-06T05:44:33.772Z,10.44
2023-01-06T05:47:01.023Z,10.45
2023-01-06T05:49:28.141Z,10.36
2023-01-06T05:51:55.283Z,10.44
2023-01-06T05:54:22.510Z,10.45
2023-01-06T05:56:49.813Z,10.32
2023-01-06T05:59:16.967Z,10.32
2023-01-06T06:01:44.134Z,10.34
2023-01-06T06:04:13.287Z,10.28
2023-01-06T06:06:40.504Z,10.26
2023-01-06T06:09:07.783Z,10.24
2023-01-06T06:11:34.891Z,10.05
2023-01-06T06:14:02.080Z,10.22
2023-01-06T06:16:29.383Z,10.14
2023-01-06T06:18:59.176Z,10.19
2023-01-06T06:21:29.050Z,10.24
2023-01-06T06:23:57.826Z,10.29
2023-01-06T06:26:25.669Z,10.37
2023-01-06T06:28:53.076Z,10.34
2023-01-06T06:31:23.185Z,10.20
2023-01-06T06:33:51.942Z,10.36
2023-01-06T06:36:19.436Z,10.38
2023-01-06T06:38:48.734Z,10.42
2023-01-06T06:41:16.314Z,10.40
2023-01-06T06:43:43.852Z,10.35
2023-01-06T06:46:11.877Z,10.46
2023-01-06T06:48:39.564Z,10.46
2023-01-06T06:51:09.466Z,10.52
2023-01-06T06:53:37.619Z,10.57
2023-01-06T06:56:08.508Z,10.60
2023-01-06T06:58:36.836Z,10.63
2023-01-06T07:01:06.055Z,10.61
2023-01-06T07:03:33.595Z,10.72
2023-01-06T07:06:03.323Z,10.81
2023-01-06T07:08:33.262Z,10.66
2023-01-06T07:11:01.224Z,10.83
2023-01-06T07:13:28.390Z,10.68
2023-01-06T07:15:55.640Z,10.97
2023-01-06T07:18:22.898Z,10.90
2023-01-06T07:20:53.689Z,11.05
2023-01-06T07:23:22.359Z,11.15
2023-01-06T07:25:57.656Z,11.20
2023-01-06T07:28:25.911Z,11.18
2023-01-06T07:30:53.553Z,11.31
2023-01-06T07:33:21.410Z,11.34
2023-01-06T07:35:53.629Z,11.39
2023-01-06T07:38:21.457Z,11.39
2023-01-06T07:40:48.877Z,11.47
2023-01-06T07:43:17.244Z,11.57
2023-01-06T07:45:47.980Z,11.38
2023-01-06T07:48:16.184Z,11.63
2023-01-06T07:50:43.584Z,11.64
2023-01-06T07:53:11.436Z,11.67
2023-01-06T07:55:38.807Z,11.36
2023-01-06T07:58:10.059Z,11.72
2023-01-06T08:00:37.910Z,11.79
2023-01-06T08:03:07.463Z,11.73
2023-01-06T08:05:38.304Z,11.79
2023-01-06T08:08:05.614Z,11.76
2023-01-06T08:10:33.650Z,11.95
2023-01-06T08:13:00.855Z,12.01
2023-01-06T08:15:28.080Z,11.76
2023-01-06T08:17:55.856Z,12.07
2023-01-06T08:20:23.891Z,12.13
2023-01-06T08:22:51.195Z,12.18
2023-01-06T08:25:18.776Z,12.21
2023-01-06T08:27:46.064Z,12.28
2023-01-06T08:30:13.913Z,12.19
2023-01-06T08:32:41.164Z,12.31
2023-01-06T08:35:08.806Z,12.17
2023-01-06T08:37:36.480Z,12.43
2023-01-06T08:40:04.918Z,12.26
2023-01-06T08:42:32.229Z,12.38
2023-01-06T08:45:02.512Z,12.56
2023-01-06T08:47:30.331Z,12.60
2023-01-06T08:49:57.619Z,12.63
2023-01-06T08:52:25.036Z,12.51
2023-01-06T08:54:52.556Z,12.75
2023-01-06T08:57:19.683Z,12.74
2023-01-06T08:59:46.882Z,12.56
2023-01-06T09:02:14.270Z,12.83
2023-01-06T09:04:41.665Z,12.90
2023-01-06T09:07:09.010Z,12.98
2023-01-06T09:09:36.368Z,13.07
2023-01-06T09:12:03.779Z,12.98
2023-01-06T09:14:31.295Z,13.02
2023-01-06T09:16:58.617Z,12.77
2023-01-06T09:19:26.072Z,12.93
2023-01-06T09:21:53.297Z,12.93
2023-01-06T09:24:20.590Z,13.05
2023-01-06T09:26:47.808Z,13.05
2023-01-06T09:29:15.369Z,12.98
2023-01-06T09:31:42.842Z,13.02
2023-01-06T09:34:10.067Z,13.05
2023-01-06T09:36:37.264Z,13.02
2023-01-06T09:39:04.416Z,13.15
2023-01-06T09:42:09.326Z,13.17
2023-01-06T09:44:46.721Z,13.27
2023-01-06T09:47:18.590Z,13.23
2023-01-06T09:50:00.490Z,13.26
2023-01-06T09:52:44.200Z,13.43
2023-01-06T09:55:31.522Z,13.46
2023-01-06T09:58:05.903Z,13.58
2023-01-06T10:00:46.425Z,13.62
2023-01-06T10:03:20.032Z,13.46
2023-01-06T10:06:28.533Z,13.56
2023-01-06T10:09:31.400Z,13.61
2023-01-06T10:12:04.422Z,13.48
2023-01-06T10:14:57.788Z,13.40
2023-01-06T10:17:43.826Z,13.44
2023-01-06T10:20:26.210Z,13.34
2023-01-06T10:22:56.463Z,13.44
2023-01-06T10:25:46.847Z,13.44
2023-01-06T10:28:25.638Z,13.47
2023-01-06T10:30:55.562Z,13.40
2023-01-06T10:33:28.798Z,13.67
2023-01-06T10:35:57.699Z,13.77
2023-01-06T10:38:32.413Z,13.89
2023-01-06T10:41:19.655Z,14.13
2023-01-06T10:43:47.010Z,14.20
2023-01-06T10:46:16.414Z,14.22
2023-01-06T10:48:46.057Z,14.17
2023-01-06T10:51:36.507Z,14.14
2023-01-06T10:54:22.286Z,14.15
2023-01-06T10:57:13.170Z,14.09
2023-01-06T11:00:12.946Z,13.93
2023-01-06T11:03:19.486Z,13.94
2023-01-06T11:06:15.359Z,13.81
2023-01-06T11:08:42.536Z,13.65
2023-01-06T11:11:27.241Z,13.78
2023-01-06T11:13:59.393Z,13.70
2023-01-06T11:16:30.656Z,13.89
2023-01-06T11:19:01.417Z,13.91
2023-01-06T11:21:41.674Z,13.84
2023-01-06T11:24:23.703Z,13.90
2023-01-06T11:26:56.893Z,14.00
2023-01-06T11:29:25.899Z,13.76
2023-01-06T11:31:53.345Z,13.85
2023-01-06T11:34:24.295Z,13.80
2023-01-06T11:36:52.686Z,13.89
2023-01-06T11:39:27.586Z,13.92
2023-01-06T11:41:56.752Z,14.12
2023-01-06T11:44:32.123Z,14.10
2023-01-06T11:47:03.739Z,14.12
2023-01-06T11:49:43.912Z,14.24
2023-01-06T11:52:25.403Z,14.17
2023-01-06T11:55:09.354Z,14.11
2023-01-06T11:57:46.525Z,13.83
2023-01-06T12:00:33.532Z,13.90
2023-01-06T12:03:07.952Z,13.90
2023-01-06T12:05:39.238Z,13.85
2023-01-06T12:08:15.834Z,13.78
2023-01-06T12:10:45.559Z,13.86
2023-01-06T12:13:14.656Z,13.65
2023-01-06T12:15:44.398Z,13.79
2023-01-06T12:18:17.353Z,13.65
2023-01-06T12:20:49.737Z,13.29
2023-01-06T12:23:30.031Z,13.58
2023-01-06T12:26:01.770Z,13.72
2023-01-06T12:28:36.314Z,13.71
2023-01-06T12:31:37.392Z,13.64
2023-01-06T12:34:21.170Z,13.64
2023-01-06T12:37:26.837Z,13.74
2023-01-06T12:40:12.796Z,13.82
2023-01-06T12:42:53.626Z,13.59
2023-01-06T12:45:20.811Z,13.95
2023-01-06T12:47:55.628Z,13.87
2023-01-06T12:50:38.331Z,13.95
2023-01-06T12:53:26.701Z,13.77
2023-01-06T12:56:30.925Z,13.72
2023-01-06T12:58:58.070Z,13.85
2023-01-06T13:01:36.617Z,13.82
2023-01-06T13:04:19.049Z,13.76
2023-01-06T13:07:10.400Z,13.66
2023-01-06T13:09:49.287Z,13.55
2023-01-06T13:12:35.300Z,13.62
2023-01-06T13:15:17.457Z,13.51
2023-01-06T13:18:23.061Z,13.54
2023-01-06T13:20:58.422Z,13.47
2023-01-06T13:23:37.703Z,13.50
2023-01-06T13:26:35.962Z,13.47
2023-01-06T13:29:39.914Z,13.46
2023-01-06T13:32:22.446Z,13.48
2023-01-06T13:35:11.844Z,13.28
2023-01-06T13:37:39.121Z,13.33
2023-01-06T13:40:11.644Z,13.28
2023-01-06T13:43:18.990Z,13.20
2023-01-06T13:45:51.432Z,13.28
2023-01-06T13:48:26.737Z,13.23
2023-01-06T13:50:54.608Z,13.36
2023-01-06T13:53:23.835Z,13.30
2023-01-06T13:56:14.259Z,13.38
2023-01-06T13:58:46.087Z,13.27
2023-01-06T14:01:19.488Z,13.33
2023-01-06T14:03:47.860Z,13.26
2023-01-06T14:06:24.357Z,13.11
2023-01-06T14:08:59.937Z,13.01
2023-01-06T14:11:33.919Z,12.82
2023-01-06T14:14:07.058Z,12.81
2023-01-06T14:16:49.748Z,12.88
2023-01-06T14:19:24.139Z,12.86
2023-01-06T14:21:54.769Z,12.84
2023-01-06T14:24:25.936Z,12.80
2023-01-06T14:27:01.461Z,12.70
2023-01-06T14:29:43.908Z,12.72
2023-01-06T14:32:19.865Z,12.69
2023-01-06T14:34:55.365Z,12.63
2023-01-06T14:37:29.184Z,12.72
2023-01-06T14:39:59.435Z,12.85
2023-01-06T14:42:39.070Z,12.60
2023-01-06T14:45:18.291Z,12.44
2023-01-06T14:47:49.450Z,12.52
2023-01-06T14:50:22.882Z,12.38
2023-01-06T14:53:02.118Z,12.45
2023-01-06T14:55:36.967Z,12.39
2023-01-06T14:58:04.302Z,12.43
2023-01-06T15:00:33.585Z,12.47
2023-01-06T15:03:04.020Z,12.64
2023-01-06T15:05:39.100Z,12.68
2023-01-06T15:08:15.770Z,11.99
2023-01-06T15:10:45.928Z,12.27
2023-01-06T15:13:31.098Z,12.27
2023-01-06T15:16:28.877Z,12.26
2023-01-06T15:18:56.606Z,12.15
2023-01-06T15:21:25.166Z,12.50
2023-01-06T15:23:55.369Z,12.53
2023-01-06T15:26:28.406Z,12.51
2023-01-06T15:29:07.587Z,12.42
2023-01-06T15:31:37.401Z,12.38
2023-01-06T15:34:12.498Z,12.35
2023-01-06T15:36:44.730Z,12.30
2023-01-06T15:39:15.348Z,12.18
2023-01-06T15:41:44.164Z,11.92
2023-01-06T15:44:41.088Z,11.76
2023-01-06T15:47:11.377Z,11.51
2023-01-06T15:49:54.319Z,11.55
2023-01-06T15:52:26.631Z,11.41
2023-01-06T15:54:57.250Z,11.32
2023-01-06T15:57:28.531Z,11.18
2023-01-06T16:00:00.073Z,11.06
2023-01-06T16:02:30.859Z,11.14
2023-01-06T16:04:59.639Z,11.15
2023-01-06T16:07:40.384Z,11.06
2023-01-06T16:10:46.266Z,11.04
2023-01-06T16:13:28.166Z,10.93
2023-01-06T16:16:24.297Z,10.83
2023-01-06T16:18:55.242Z,10.79
2023-01-06T16:21:32.084Z,10.79
2023-01-06T16:24:03.674Z,10.81
2023-01-06T16:26:42.643Z,10.73
2023-01-06T16:29:34.907Z,10.64
2023-01-06T16:32:23.815Z,10.53
2023-01-06T16:34:54.175Z,10.45
2023-01-06T16:37:21.554Z,10.33
2023-01-06T16:39:48.779Z,10.46
2023-01-06T16:42:34.546Z,10.47
2023-01-06T16:45:16.597Z,10.40
2023-01-06T16:47:44.689Z,10.37
2023-01-06T16:50:15.337Z,10.49
2023-01-06T16:52:43.975Z,10.46
2023-01-06T16:55:20.949Z,10.45
2023-01-06T16:57:51.673Z,10.37
2023-01-06T17:00:22.169Z,10.36
2023-01-06T17:02:50.741Z,10.35
2023-01-06T17:05:29.359Z,10.35
2023-01-06T17:08:00.786Z,10.36
2023-01-06T17:10:28.463Z,10.31
2023-01-06T17:13:22.255Z,10.36
2023-01-06T17:15:59.999Z,10.37
2023-01-06T17:18:30.525Z,10.32
2023-01-06T17:21:16.908Z,10.29
2023-01-06T17:24:12.531Z,10.39
2023-01-06T17:26:41.143Z,10.37
2023-01-06T17:29:15.969Z,10.26
2023-01-06T17:31:49.274Z,10.23
2023-01-06T17:34:18.867Z,10.04
2023-01-06T17:36:48.273Z,9.80
2023-01-06T17:39:23.085Z,9.96
2023-01-06T17:41:57.092Z,9.81
2023-01-06T17:44:35.667Z,9.98
2023-01-06T17:47:12.710Z,9.81
2023-01-06T17:49:40.162Z,9.81
2023-01-06T17:52:25.116Z,9.73
2023-01-06T17:55:17.681Z,9.77
2023-01-06T17:57:47.187Z,9.79
2023-01-06T18:00:33.257Z,9.78
2023-01-06T18:03:12.643Z,9.57
2023-01-06T18:05:44.204Z,9.70
2023-01-06T18:08:14.989Z,9.67
2023-01-06T18:10:50.907Z,9.59
2023-01-06T18:13:32.293Z,9.48
2023-01-06T18:16:01.730Z,9.46
2023-01-06T18:18:40.467Z,9.73
2023-01-06T18:21:17.102Z,9.80
2023-01-06T18:23:51.189Z,9.75
2023-01-06T18:26:27.488Z,9.93
2023-01-06T18:28:56.935Z,9.55
2023-01-06T18:31:24.535Z,9.89
2023-01-06T18:33:51.942Z,10.03
2023-01-06T18:36:19.129Z,10.01
2023-01-06T18:38:47.329Z,9.99
2023-01-06T18:41:15.109Z,9.96
2023-01-06T18:43:43.383Z,9.98
2023-01-06T18:46:17.396Z,9.99
2023-01-06T18:48:45.615Z,9.98
2023-01-06T18:51:20.504Z,9.97
2023-01-06T18:53:48.736Z,10.07
2023-01-06T18:56:17.395Z,10.18
2023-01-06T18:58:53.293Z,10.31
2023-01-06T19:01:31.354Z,10.46
2023-01-06T19:04:14.693Z,10.52
2023-01-06T19:07:25.314Z,10.40
2023-01-06T19:09:52.598Z,9.95
2023-01-06T19:12:29.713Z,9.82
2023-01-06T19:15:02.649Z,9.75
2023-01-06T19:17:33.806Z,9.70
2023-01-06T19:20:10.513Z,9.57
2023-01-06T19:22:38.391Z,9.71
2023-01-06T19:25:27.313Z,9.72
2023-01-06T19:27:58.951Z,9.78
2023-01-06T19:30:40.498Z,9.91
2023-01-06T19:33:23.723Z,10.07
2023-01-06T19:35:58.926Z,10.10
2023-01-06T19:38:26.219Z,10.22
2023-01-06T19:40:54.950Z,10.31
2023-01-06T19:43:36.087Z,10.40
2023-01-06T19:46:12.461Z,10.12
2023-01-06T19:48:41.711Z,9.99
2023-01-06T19:51:16.958Z,9.75
2023-01-06T19:53:46.717Z,9.57
2023-01-06T19:56:18.493Z,9.47
2023-01-06T19:58:52.795Z,9.74
2023-01-06T20:01:21.336Z,9.87
2023-01-06T20:03:50.872Z,9.94
2023-01-06T20:06:18.067Z,9.96
2023-01-06T20:08:45.374Z,9.91
2023-01-06T20:11:13.627Z,10.26
2023-01-06T20:13:40.814Z,9.96
2023-01-06T20:16:08.625Z,10.11
2023-01-06T20:18:36.003Z,10.13
2023-01-06T20:21:03.500Z,10.12
2023-01-06T20:23:30.908Z,10.20
2023-01-06T20:25:59.627Z,10.03
2023-01-06T20:28:26.763Z,10.06
2023-01-06T20:30:54.120Z,9.68
2023-01-06T20:33:22.037Z,9.44
2023-01-06T20:35:49.168Z,9.60
2023-01-06T20:38:16.287Z,9.57
2023-01-06T20:40:43.385Z,9.75
2023-01-06T20:43:11.043Z,9.86
2023-01-06T20:45:38.317Z,9.97
2023-01-06T20:48:05.747Z,10.02
2023-01-06T20:50:32.938Z,10.03
2023-01-06T20:53:00.331Z,10.01
2023-01-06T20:55:27.517Z,10.00
2023-01-06T20:57:54.766Z,9.96
2023-01-06T21:00:22.171Z,9.99
2023-01-06T21:02:49.349Z,10.02
2023-01-06T21:05:16.806Z,10.04
2023-01-06T21:07:44.128Z,9.93
2023-01-06T21:10:11.455Z,9.92
2023-01-06T21:12:39.072Z,9.76
2023-01-06T21:15:07.721Z,9.71
2023-01-06T21:17:34.970Z,9.67
2023-01-06T21:20:02.530Z,9.55
2023-01-06T21:22:29.845Z,9.57
2023-01-06T21:24:57.052Z,9.53
2023-01-06T21:27:24.513Z,9.58
2023-01-06T21:29:51.771Z,9.56
2023-01-06T21:32:19.178Z,9.51
2023-01-06T21:34:46.459Z,9.65
2023-01-06T21:37:13.671Z,9.70
2023-01-06T21:39:40.894Z,9.61
2023-01-06T21:42:26.444Z,9.72
2023-01-06T21:44:53.884Z,9.57
2023-01-06T21:47:21.084Z,9.50
2023-01-06T21:49:48.410Z,9.45
2023-01-06T21:52:16.019Z,9.59
2023-01-06T21:54:44.643Z,9.64
2023-01-06T21:57:12.552Z,9.66
2023-01-06T21:59:40.281Z,9.75
2023-01-06T22:02:09.081Z,9.79
2023-01-06T22:04:36.531Z,9.72
2023-01-06T22:07:06.524Z,9.59
2023-01-06T22:09:33.908Z,9.80
2023-01-06T22:12:04.725Z,9.82
2023-01-06T22:14:32.518Z,9.78
2023-01-06T22:17:01.071Z,9.75
2023-01-06T22:19:29.741Z,9.72
2023-01-06T22:21:58.512Z,9.61
2023-01-06T22:24:26.072Z,9.50
2023-01-06T22:26:53.244Z,9.48
2023-01-06T22:29:20.479Z,9.48
2023-01-06T22:31:47.645Z,9.43
2023-01-06T22:34:17.169Z,9.40
2023-01-06T22:36:44.570Z,9.41
2023-01-06T22:39:11.841Z,9.35
2023-01-06T22:41:39.024Z,9.41
2023-01-06T22:44:06.322Z,9.40
2023-01-06T22:46:33.507Z,9.44
2023-01-06T22:49:00.851Z,9.40
2023-01-06T22:51:28.796Z,9.35
2023-01-06T22:53:57.301Z,9.22
2023-01-06T22:56:25.331Z,9.24
2023-01-06T22:58:52.603Z,9.31
2023-01-06T23:01:19.948Z,9.25
2023-01-06T23:03:47.151Z,9.31
2023-01-06T23:06:15.918Z,9.29
2023-01-06T23:08:58.453Z,9.27
2023-01-06T23:11:28.221Z,9.14
2023-01-06T23:13:57.524Z,9.03
2023-01-06T23:16:26.883Z,9.02
2023-01-06T23:18:54.590Z,8.86
2023-01-06T23:21:24.062Z,8.93
2023-01-06T23:23:52.472Z,8.98
2023-01-06T23:26:23.400Z,9.03
2023-01-06T23:28:51.541Z,9.00
2023-01-06T23:31:21.541Z,8.90
2023-01-06T23:33:52.898Z,8.85
2023-01-06T23:36:20.679Z,8.91
2023-01-06T23:38:48.707Z,8.96
2023-01-06T23:41:19.142Z,8.89
2023-01-06T23:43:47.237Z,8.89
2023-01-06T23:46:20.090Z,8.92
2023-01-06T23:48:48.080Z,8.91
2023-01-06T23:51:16.554Z,8.87
2023-01-06T23:53:44.821Z,8.83
2023-01-06T23:56:14.052Z,8.75
2023-01-06T23:58:43.226Z,8.72
